Terminal Aerodrome Forecast
Issued by NWS Mt. Holly, NJ

Home | Current Version | Previous Version | Text Only | Print | Product List | Glossary On
Versions: 1 2 3 4 5 6 7 8 9 10 11 12 13 14 15 16 17 18 19 20 21 22 23 24 25 26 27 28 29 30 31
000
FTUS41 KPHI 162200 AAB
TAFACY
TAF AMD
KACY 162206Z 1622/1718 10011KT P6SM SKC
     FM162330 08010KT P6SM SKC
     FM170200 06008KT P6SM FEW250
     FM171200 08012G22KT P6SM SCT250=

USA.gov is the U.S. government's official web portal to all federal, state and local government web resources and services.